sensor_id;sensor_type;location;lat;lon;timestamp;temperature;humidity
52397;DHT22;38322;53.108;6.308;2024-01-15T06:01:39;0.70;99.90
52397;DHT22;38322;53.108;6.308;2024-01-15T06:04:05;0.70;99.90
52397;DHT22;38322;53.108;6.308;2024-01-15T06:06:30;0.70;99.90
52397;DHT22;38322;53.108;6.308;2024-01-15T06:08:57;0.80;99.90
52397;DHT22;38322;53.108;6.308;2024-01-15T06:11:29;0.70;99.90
52397;DHT22;38322;53.108;6.308;2024-01-15T06:13:56;0.70;99.90
52397;DHT22;38322;53.108;6.308;2024-01-15T06:16:21;0.70;99.90
52397;DHT22;38322;53.108;6.308;2024-01-15T06:18:49;0.70;99.90
52397;DHT22;38322;53.108;6.308;2024-01-15T06:21:15;0.70;99.90
52397;DHT22;38322;53.108;6.308;2024-01-15T06:23:41;0.70;99.90
52397;DHT22;38322;53.108;6.308;2024-01-15T06:26:07;0.70;99.90
52397;DHT22;38322;53.108;6.308;2024-01-15T06:28:33;0.70;99.90
52397;DHT22;38322;53.108;6.308;2024-01-15T06:30:59;0.70;99.90
52397;DHT22;38322;53.108;6.308;2024-01-15T06:33:25;0.70;99.90
52397;DHT22;38322;53.108;6.308;2024-01-15T06:35:51;0.90;99.90
52397;DHT22;38322;53.108;6.308;2024-01-15T06:38:16;0.90;99.90
52397;DHT22;38322;53.108;6.308;2024-01-15T06:40:42;1.00;99.90
52397;DHT22;38322;53.108;6.308;2024-01-15T06:43:12;1.00;99.90
52397;DHT22;38322;53.108;6.308;2024-01-15T06:45:38;0.90;99.90
52397;DHT22;38322;53.108;6.308;2024-01-15T06:48:04;0.90;99.90
52397;DHT22;38322;53.108;6.308;2024-01-15T06:50:30;0.80;99.90
52397;DHT22;38322;53.108;6.308;2024-01-15T06:52:56;0.80;99.90
52397;DHT22;38322;53.108;6.308;2024-01-15T06:55:22;0.70;99.90
52397;DHT22;38322;53.108;6.308;2024-01-15T06:57:48;0.60;99.90
52397;DHT22;38322;53.108;6.308;2024-01-15T07:00:14;0.70;99.90
52397;DHT22;38322;53.108;6.308;2024-01-15T07:02:40;0.70;99.90
52397;DHT22;38322;53.108;6.308;2024-01-15T07:05:06;0.70;99.90
52397;DHT22;38322;53.108;6.308;2024-01-15T07:07:32;0.70;99.90
52397;DHT22;38322;53.108;6.308;2024-01-15T07:09:58;0.70;99.90
52397;DHT22;38322;53.108;6.308;2024-01-15T07:12:24;0.70;99.90
52397;DHT22;38322;53.108;6.308;2024-01-15T07:14:50;0.70;99.90
52397;DHT22;38322;53.108;6.308;2024-01-15T07:17:15;0.70;99.90
52397;DHT22;38322;53.108;6.308;2024-01-15T07:19:41;0.70;99.90
52397;DHT22;38322;53.108;6.308;2024-01-15T07:22:07;0.70;99.90
52397;DHT22;38322;53.108;6.308;2024-01-15T07:24:33;0.60;99.90
52397;DHT22;38322;53.108;6.308;2024-01-15T07:27:00;0.60;99.90
52397;DHT22;38322;53.108;6.308;2024-01-15T07:29:26;0.60;99.90
52397;DHT22;38322;53.108;6.308;2024-01-15T07:31:52;0.70;99.90
52397;DHT22;38322;53.108;6.308;2024-01-15T07:34:19;0.60;99.90
52397;DHT22;38322;53.108;6.308;2024-01-15T07:36:45;0.70;99.90
52397;DHT22;38322;53.108;6.308;2024-01-15T07:39:11;0.70;99.90
52397;DHT22;38322;53.108;6.308;2024-01-15T07:41:37;0.70;99.90
52397;DHT22;38322;53.108;6.308;2024-01-15T07:44:03;0.80;99.90
52397;DHT22;38322;53.108;6.308;2024-01-15T07:46:29;0.80;99.90
52397;DHT22;38322;53.108;6.308;2024-01-15T07:48:55;0.90;99.90
52397;DHT22;38322;53.108;6.308;2024-01-15T07:51:24;1.00;99.90
52397;DHT22;38322;53.108;6.308;2024-01-15T07:53:50;1.00;99.90
52397;DHT22;38322;53.108;6.308;2024-01-15T07:56:16;0.90;99.90
52397;DHT22;38322;53.108;6.308;2024-01-15T07:58:42;1.00;99.90
52397;DHT22;38322;53.108;6.308;2024-01-15T08:01:08;0.90;99.90
52397;DHT22;38322;53.108;6.308;2024-01-15T08:03:34;0.90;99.90
52397;DHT22;38322;53.108;6.308;2024-01-15T08:06:00;0.90;99.90
52397;DHT22;38322;53.108;6.308;2024-01-15T08:08:26;0.80;99.90
52397;DHT22;38322;53.108;6.308;2024-01-15T08:10:52;0.80;99.90
52397;DHT22;38322;53.108;6.308;2024-01-15T08:13:18;0.70;99.90
52397;DHT22;38322;53.108;6.308;2024-01-15T08:15:46;0.70;99.90
52397;DHT22;38322;53.108;6.308;2024-01-15T08:18:12;0.70;99.90
52397;DHT22;38322;53.108;6.308;2024-01-15T08:20:38;0.70;99.90
52397;DHT22;38322;53.108;6.308;2024-01-15T08:23:04;0.80;99.90
52397;DHT22;38322;53.108;6.308;2024-01-15T08:25:30;0.80;99.90
52397;DHT22;38322;53.108;6.308;2024-01-15T08:27:57;0.90;99.90
52397;DHT22;38322;53.108;6.308;2024-01-15T08:30:23;0.90;99.90
52397;DHT22;38322;53.108;6.308;2024-01-15T08:32:55;0.90;99.90
52397;DHT22;38322;53.108;6.308;2024-01-15T08:35:21;1.00;99.90
52397;DHT22;38322;53.108;6.308;2024-01-15T08:37:49;1.00;99.90
52397;DHT22;38322;53.108;6.308;2024-01-15T08:40:16;1.10;99.90
52397;DHT22;38322;53.108;6.308;2024-01-15T08:42:42;1.20;99.90
52397;DHT22;38322;53.108;6.308;2024-01-15T08:45:09;1.40;99.90
52397;DHT22;38322;53.108;6.308;2024-01-15T08:47:35;1.50;99.90
52397;DHT22;38322;53.108;6.308;2024-01-15T08:50:01;1.70;99.90
52397;DHT22;38322;53.108;6.308;2024-01-15T08:52:27;1.70;99.90
52397;DHT22;38322;53.108;6.308;2024-01-15T08:54:55;1.50;99.90
52397;DHT22;38322;53.108;6.308;2024-01-15T08:57:21;1.40;99.90
52397;DHT22;38322;53.108;6.308;2024-01-15T08:59:47;1.30;99.90
52397;DHT22;38322;53.108;6.308;2024-01-15T09:02:13;1.20;99.90
52397;DHT22;38322;53.108;6.308;2024-01-15T09:04:40;1.20;99.90
52397;DHT22;38322;53.108;6.308;2024-01-15T09:07:07;1.10;99.90
52397;DHT22;38322;53.108;6.308;2024-01-15T09:09:33;1.10;99.90
52397;DHT22;38322;53.108;6.308;2024-01-15T09:12:00;1.10;99.90
52397;DHT22;38322;53.108;6.308;2024-01-15T09:14:26;1.10;99.90
52397;DHT22;38322;53.108;6.308;2024-01-15T09:16:54;1.10;99.90
52397;DHT22;38322;53.108;6.308;2024-01-15T09:19:20;1.20;99.90
52397;DHT22;38322;53.108;6.308;2024-01-15T09:21:46;1.20;99.90
52397;DHT22;38322;53.108;6.308;2024-01-15T09:24:12;1.20;99.90
52397;DHT22;38322;53.108;6.308;2024-01-15T09:26:37;1.30;99.90
52397;DHT22;38322;53.108;6.308;2024-01-15T09:29:03;1.50;99.90
52397;DHT22;38322;53.108;6.308;2024-01-15T09:31:29;1.70;99.90
52397;DHT22;38322;53.108;6.308;2024-01-15T09:33:55;1.90;99.90
52397;DHT22;38322;53.108;6.308;2024-01-15T09:36:23;1.80;99.90
52397;DHT22;38322;53.108;6.308;2024-01-15T09:38:49;1.70;99.90
52397;DHT22;38322;53.108;6.308;2024-01-15T09:41:15;1.70;99.90
52397;DHT22;38322;53.108;6.308;2024-01-15T09:43:41;1.60;99.90
52397;DHT22;38322;53.108;6.308;2024-01-15T09:46:07;1.50;99.90
52397;DHT22;38322;53.108;6.308;2024-01-15T09:48:33;1.50;99.90
52397;DHT22;38322;53.108;6.308;2024-01-15T09:51:01;1.50;99.90
52397;DHT22;38322;53.108;6.308;2024-01-15T09:53:27;1.60;99.90
52397;DHT22;38322;53.108;6.308;2024-01-15T09:55:53;1.60;99.90
52397;DHT22;38322;53.108;6.308;2024-01-15T09:58:19;1.60;99.90
52397;DHT22;38322;53.108;6.308;2024-01-15T10:00:48;1.60;99.90
52397;DHT22;38322;53.108;6.308;2024-01-15T10:03:16;1.70;99.90
52397;DHT22;38322;53.108;6.308;2024-01-15T10:05:43;1.70;99.90
52397;DHT22;38322;53.108;6.308;2024-01-15T10:08:09;1.70;99.90
52397;DHT22;38322;53.108;6.308;2024-01-15T10:10:36;1.80;99.90
52397;DHT22;38322;53.108;6.308;2024-01-15T10:13:04;1.80;99.90
52397;DHT22;38322;53.108;6.308;2024-01-15T10:15:34;2.00;99.90
52397;DHT22;38322;53.108;6.308;2024-01-15T10:18:02;2.20;99.90
52397;DHT22;38322;53.108;6.308;2024-01-15T10:20:28;2.40;99.90
52397;DHT22;38322;53.108;6.308;2024-01-15T10:22:55;2.40;99.90
52397;DHT22;38322;53.108;6.308;2024-01-15T10:25:21;2.40;99.90
52397;DHT22;38322;53.108;6.308;2024-01-15T10:28:00;2.40;99.90
52397;DHT22;38322;53.108;6.308;2024-01-15T10:30:26;2.30;99.90
52397;DHT22;38322;53.108;6.308;2024-01-15T10:32:59;2.40;99.90
52397;DHT22;38322;53.108;6.308;2024-01-15T10:35:29;2.40;99.90
52397;DHT22;38322;53.108;6.308;2024-01-15T10:37:56;2.40;99.90
52397;DHT22;38322;53.108;6.308;2024-01-15T10:40:22;2.30;99.90
52397;DHT22;38322;53.108;6.308;2024-01-15T10:42:48;2.10;99.90
52397;DHT22;38322;53.108;6.308;2024-01-15T10:45:14;2.00;99.90
52397;DHT22;38322;53.108;6.308;2024-01-15T10:47:41;2.00;99.90
52397;DHT22;38322;53.108;6.308;2024-01-15T10:50:09;2.00;99.90
52397;DHT22;38322;53.108;6.308;2024-01-15T10:52:36;2.00;99.90
52397;DHT22;38322;53.108;6.308;2024-01-15T10:55:03;2.10;99.90
52397;DHT22;38322;53.108;6.308;2024-01-15T10:57:30;2.00;99.90
52397;DHT22;38322;53.108;6.308;2024-01-15T10:59:56;2.00;99.90
52397;DHT22;38322;53.108;6.308;2024-01-15T11:02:25;2.00;99.90
52397;DHT22;38322;53.108;6.308;2024-01-15T11:04:52;2.00;99.90
52397;DHT22;38322;53.108;6.308;2024-01-15T11:07:22;2.00;99.90
52397;DHT22;38322;53.108;6.308;2024-01-15T11:09:50;2.00;99.90
52397;DHT22;38322;53.108;6.308;2024-01-15T11:12:17;1.90;99.90
52397;DHT22;38322;53.108;6.308;2024-01-15T11:14:48;2.00;99.90
52397;DHT22;38322;53.108;6.308;2024-01-15T11:17:15;2.00;99.90
52397;DHT22;38322;53.108;6.308;2024-01-15T11:22:10;2.00;99.90
52397;DHT22;38322;53.108;6.308;2024-01-15T11:24:39;2.00;99.90
52397;DHT22;38322;53.108;6.308;2024-01-15T11:27:07;2.00;99.90
52397;DHT22;38322;53.108;6.308;2024-01-15T11:29:35;2.00;99.90
52397;DHT22;38322;53.108;6.308;2024-01-15T11:32:03;2.00;99.90
52397;DHT22;38322;53.108;6.308;2024-01-15T11:34:53;2.20;99.90
52397;DHT22;38322;53.108;6.308;2024-01-15T11:37:20;2.20;99.90
52397;DHT22;38322;53.108;6.308;2024-01-15T11:39:46;2.10;99.90
52397;DHT22;38322;53.108;6.308;2024-01-15T11:42:14;1.90;99.90
52397;DHT22;38322;53.108;6.308;2024-01-15T11:44:40;1.70;99.90
52397;DHT22;38322;53.108;6.308;2024-01-15T11:47:08;1.50;99.90
52397;DHT22;38322;53.108;6.308;2024-01-15T11:52:22;1.20;99.90
52397;DHT22;38322;53.108;6.308;2024-01-15T11:55:05;1.10;99.90
52397;DHT22;38322;53.108;6.308;2024-01-15T11:57:47;1.10;99.90
52397;DHT22;38322;53.108;6.308;2024-01-15T12:00:15;1.00;99.90
52397;DHT22;38322;53.108;6.308;2024-01-15T12:02:42;1.10;99.90
52397;DHT22;38322;53.108;6.308;2024-01-15T12:05:11;1.10;99.90
52397;DHT22;38322;53.108;6.308;2024-01-15T12:07:40;1.10;99.90
52397;DHT22;38322;53.108;6.308;2024-01-15T12:10:14;1.20;99.90
52397;DHT22;38322;53.108;6.308;2024-01-15T12:15:14;1.30;99.90
52397;DHT22;38322;53.108;6.308;2024-01-15T12:17:40;1.40;99.90
52397;DHT22;38322;53.108;6.308;2024-01-15T12:20:07;1.50;99.90
52397;DHT22;38322;53.108;6.308;2024-01-15T12:22:33;1.60;99.90
52397;DHT22;38322;53.108;6.308;2024-01-15T12:28:39;1.70;99.90
52397;DHT22;38322;53.108;6.308;2024-01-15T12:31:05;1.80;99.90
52397;DHT22;38322;53.108;6.308;2024-01-15T12:33:32;1.90;99.90
52397;DHT22;38322;53.108;6.308;2024-01-15T12:35:58;2.00;99.90
52397;DHT22;38322;53.108;6.308;2024-01-15T12:38:24;2.10;99.90
52397;DHT22;38322;53.108;6.308;2024-01-15T12:40:51;2.20;99.90
52397;DHT22;38322;53.108;6.308;2024-01-15T12:43:17;2.20;99.90
52397;DHT22;38322;53.108;6.308;2024-01-15T12:45:43;2.20;99.90
52397;DHT22;38322;53.108;6.308;2024-01-15T12:48:09;2.00;99.90
52397;DHT22;38322;53.108;6.308;2024-01-15T12:50:35;1.90;99.90
52397;DHT22;38322;53.108;6.308;2024-01-15T12:53:01;1.80;99.90
52397;DHT22;38322;53.108;6.308;2024-01-15T12:55:27;1.80;99.90
52397;DHT22;38322;53.108;6.308;2024-01-15T14:13:08;1.60;99.90
52397;DHT22;38322;53.108;6.308;2024-01-15T14:15:35;1.80;99.90
52397;DHT22;38322;53.108;6.308;2024-01-15T14:18:01;1.80;99.90
52397;DHT22;38322;53.108;6.308;2024-01-15T14:20:27;1.70;99.90
52397;DHT22;38322;53.108;6.308;2024-01-15T14:22:53;1.80;99.90
52397;DHT22;38322;53.108;6.308;2024-01-15T14:25:20;1.80;99.90
52397;DHT22;38322;53.108;6.308;2024-01-15T14:27:47;1.80;99.90
52397;DHT22;38322;53.108;6.308;2024-01-15T14:30:13;1.80;99.90
52397;DHT22;38322;53.108;6.308;2024-01-15T14:32:41;1.80;99.90
52397;DHT22;38322;53.108;6.308;2024-01-15T14:35:08;1.90;99.90
52397;DHT22;38322;53.108;6.308;2024-01-15T14:37:38;1.90;99.90
52397;DHT22;38322;53.108;6.308;2024-01-15T14:40:05;2.00;99.90
52397;DHT22;38322;53.108;6.308;2024-01-15T14:42:34;2.00;99.90
52397;DHT22;38322;53.108;6.308;2024-01-15T14:45:00;2.00;99.90
52397;DHT22;38322;53.108;6.308;2024-01-15T14:47:28;2.00;99.90
52397;DHT22;38322;53.108;6.308;2024-01-15T14:49:54;2.00;99.90
52397;DHT22;38322;53.108;6.308;2024-01-15T14:52:23;1.90;99.90
52397;DHT22;38322;53.108;6.308;2024-01-15T14:54:49;1.80;99.90
52397;DHT22;38322;53.108;6.308;2024-01-15T14:57:15;1.50;99.90
52397;DHT22;38322;53.108;6.308;2024-01-15T14:59:41;1.30;99.90
52397;DHT22;38322;53.108;6.308;2024-01-15T15:02:07;1.20;99.90
52397;DHT22;38322;53.108;6.308;2024-01-15T15:04:33;1.10;99.90
52397;DHT22;38322;53.108;6.308;2024-01-15T15:06:58;1.00;99.90
52397;DHT22;38322;53.108;6.308;2024-01-15T15:09:24;1.00;99.90
52397;DHT22;38322;53.108;6.308;2024-01-15T15:11:50;0.90;99.90
52397;DHT22;38322;53.108;6.308;2024-01-15T15:14:18;0.90;99.90
52397;DHT22;38322;53.108;6.308;2024-01-15T15:16:44;0.80;99.90
52397;DHT22;38322;53.108;6.308;2024-01-15T15:19:12;0.80;99.90
52397;DHT22;38322;53.108;6.308;2024-01-15T15:21:38;0.70;99.90
52397;DHT22;38322;53.108;6.308;2024-01-15T15:24:04;0.70;99.90
52397;DHT22;38322;53.108;6.308;2024-01-15T15:26:30;0.70;99.90
52397;DHT22;38322;53.108;6.308;2024-01-15T15:28:56;0.70;99.90
52397;DHT22;38322;53.108;6.308;2024-01-15T15:31:21;0.70;99.90
52397;DHT22;38322;53.108;6.308;2024-01-15T15:33:47;0.70;99.90
52397;DHT22;38322;53.108;6.308;2024-01-15T15:36:13;0.70;99.90
52397;DHT22;38322;53.108;6.308;2024-01-15T15:38:39;0.80;99.90
52397;DHT22;38322;53.108;6.308;2024-01-15T15:41:05;0.80;99.90
52397;DHT22;38322;53.108;6.308;2024-01-15T15:43:31;0.80;99.90
52397;DHT22;38322;53.108;6.308;2024-01-15T15:45:57;0.80;99.90
52397;DHT22;38322;53.108;6.308;2024-01-15T15:48:23;0.70;99.90
52397;DHT22;38322;53.108;6.308;2024-01-15T15:50:50;0.70;99.90
52397;DHT22;38322;53.108;6.308;2024-01-15T15:53:19;0.70;99.90
52397;DHT22;38322;53.108;6.308;2024-01-15T15:55:46;0.70;99.90
52397;DHT22;38322;53.108;6.308;2024-01-15T15:58:12;0.70;99.90
52397;DHT22;38322;53.108;6.308;2024-01-15T16:00:38;0.70;99.90
52397;DHT22;38322;53.108;6.308;2024-01-15T16:03:04;0.70;99.90
52397;DHT22;38322;53.108;6.308;2024-01-15T16:05:30;0.70;99.90
52397;DHT22;38322;53.108;6.308;2024-01-15T16:07:56;0.70;99.90
52397;DHT22;38322;53.108;6.308;2024-01-15T16:10:21;0.70;99.90
52397;DHT22;38322;53.108;6.308;2024-01-15T16:12:47;0.70;99.90
52397;DHT22;38322;53.108;6.308;2024-01-15T16:15:18;0.70;99.90
52397;DHT22;38322;53.108;6.308;2024-01-15T16:17:45;0.70;99.90
52397;DHT22;38322;53.108;6.308;2024-01-15T16:20:11;0.70;99.90
52397;DHT22;38322;53.108;6.308;2024-01-15T16:22:37;0.80;99.90
52397;DHT22;38322;53.108;6.308;2024-01-15T16:25:03;0.70;99.90
52397;DHT22;38322;53.108;6.308;2024-01-15T16:27:29;0.70;99.90
52397;DHT22;38322;53.108;6.308;2024-01-15T16:29:55;0.80;99.90
52397;DHT22;38322;53.108;6.308;2024-01-15T16:32:20;0.80;99.90
52397;DHT22;38322;53.108;6.308;2024-01-15T16:34:46;0.70;99.90
52397;DHT22;38322;53.108;6.308;2024-01-15T16:37:12;0.70;99.90
52397;DHT22;38322;53.108;6.308;2024-01-15T16:39:38;0.70;99.90
52397;DHT22;38322;53.108;6.308;2024-01-15T16:42:05;0.60;99.90
52397;DHT22;38322;53.108;6.308;2024-01-15T16:44:33;0.70;99.90
52397;DHT22;38322;53.108;6.308;2024-01-15T16:46:59;0.70;99.90
52397;DHT22;38322;53.108;6.308;2024-01-15T16:49:27;0.60;99.90
52397;DHT22;38322;53.108;6.308;2024-01-15T16:51:53;0.60;99.90
52397;DHT22;38322;53.108;6.308;2024-01-15T16:54:19;0.60;99.90
52397;DHT22;38322;53.108;6.308;2024-01-15T16:56:45;0.50;99.90
52397;DHT22;38322;53.108;6.308;2024-01-15T16:59:11;0.50;99.90
52397;DHT22;38322;53.108;6.308;2024-01-15T17:01:37;0.50;99.90
52397;DHT22;38322;53.108;6.308;2024-01-15T17:04:03;0.50;99.90
52397;DHT22;38322;53.108;6.308;2024-01-15T17:06:31;0.40;99.90
52397;DHT22;38322;53.108;6.308;2024-01-15T17:08:57;0.40;99.90
52397;DHT22;38322;53.108;6.308;2024-01-15T17:11:23;0.40;99.90
52397;DHT22;38322;53.108;6.308;2024-01-15T17:13:50;0.30;99.90
52397;DHT22;38322;53.108;6.308;2024-01-15T17:16:17;0.30;99.90
52397;DHT22;38322;53.108;6.308;2024-01-15T17:18:44;0.30;99.90
52397;DHT22;38322;53.108;6.308;2024-01-15T17:21:10;0.20;99.90
52397;DHT22;38322;53.108;6.308;2024-01-15T17:23:36;0.30;99.90
52397;DHT22;38322;53.108;6.308;2024-01-15T17:26:03;0.30;99.90
52397;DHT22;38322;53.108;6.308;2024-01-15T17:28:29;0.30;99.90
52397;DHT22;38322;53.108;6.308;2024-01-15T17:30:55;0.30;99.90
52397;DHT22;38322;53.108;6.308;2024-01-15T17:33:21;0.30;99.90
52397;DHT22;38322;53.108;6.308;2024-01-15T17:35:55;0.40;99.90
52397;DHT22;38322;53.108;6.308;2024-01-15T17:38:22;0.40;99.90
52397;DHT22;38322;53.108;6.308;2024-01-15T17:40:48;0.50;99.90
52397;DHT22;38322;53.108;6.308;2024-01-15T17:43:15;0.60;99.90
52397;DHT22;38322;53.108;6.308;2024-01-15T17:45:40;0.60;99.90
52397;DHT22;38322;53.108;6.308;2024-01-15T17:48:07;0.60;99.90
52397;DHT22;38322;53.108;6.308;2024-01-15T17:50:34;0.60;99.90
52397;DHT22;38322;53.108;6.308;2024-01-15T17:53:00;0.50;99.90
52397;DHT22;38322;53.108;6.308;2024-01-15T17:55:26;0.50;99.90
52397;DHT22;38322;53.108;6.308;2024-01-15T17:57:53;0.50;99.90
52397;DHT22;38322;53.108;6.308;2024-01-15T18:00:19;0.50;99.90
52397;DHT22;38322;53.108;6.308;2024-01-15T18:02:46;0.50;99.90
52397;DHT22;38322;53.108;6.308;2024-01-15T18:05:12;0.40;99.90
52397;DHT22;38322;53.108;6.308;2024-01-15T18:07:38;0.40;99.90
52397;DHT22;38322;53.108;6.308;2024-01-15T18:10:06;0.40;99.90
52397;DHT22;38322;53.108;6.308;2024-01-15T18:12:32;0.40;99.90
52397;DHT22;38322;53.108;6.308;2024-01-15T18:14:59;0.40;99.90
52397;DHT22;38322;53.108;6.308;2024-01-15T18:17:26;0.30;99.90
52397;DHT22;38322;53.108;6.308;2024-01-15T18:19:53;0.30;99.90
52397;DHT22;38322;53.108;6.308;2024-01-15T18:22:19;0.30;99.90
52397;DHT22;38322;53.108;6.308;2024-01-15T18:24:45;0.30;99.90
52397;DHT22;38322;53.108;6.308;2024-01-15T18:27:12;0.40;99.90
52397;DHT22;38322;53.108;6.308;2024-01-15T18:29:38;0.40;99.90
52397;DHT22;38322;53.108;6.308;2024-01-15T18:32:04;0.40;99.90
52397;DHT22;38322;53.108;6.308;2024-01-15T18:34:31;0.40;99.90
52397;DHT22;38322;53.108;6.308;2024-01-15T18:36:57;0.50;99.90
52397;DHT22;38322;53.108;6.308;2024-01-15T18:39:23;0.50;99.90
52397;DHT22;38322;53.108;6.308;2024-01-15T18:41:49;0.50;99.90
52397;DHT22;38322;53.108;6.308;2024-01-15T18:44:15;0.50;99.90
52397;DHT22;38322;53.108;6.308;2024-01-15T18:46:41;0.50;99.90
52397;DHT22;38322;53.108;6.308;2024-01-15T18:49:09;0.50;99.90
52397;DHT22;38322;53.108;6.308;2024-01-15T18:51:36;0.50;99.90
52397;DHT22;38322;53.108;6.308;2024-01-15T18:54:02;0.40;99.90
52397;DHT22;38322;53.108;6.308;2024-01-15T18:56:27;0.40;99.90
52397;DHT22;38322;53.108;6.308;2024-01-15T18:58:53;0.30;99.90
52397;DHT22;38322;53.108;6.308;2024-01-15T19:01:31;0.30;99.90
52397;DHT22;38322;53.108;6.308;2024-01-15T19:03:59;0.30;99.90
52397;DHT22;38322;53.108;6.308;2024-01-15T19:06:25;0.30;99.90
52397;DHT22;38322;53.108;6.308;2024-01-15T19:08:52;0.30;99.90
52397;DHT22;38322;53.108;6.308;2024-01-15T19:11:19;0.30;99.90
52397;DHT22;38322;53.108;6.308;2024-01-15T19:13:45;0.30;99.90
52397;DHT22;38322;53.108;6.308;2024-01-15T19:16:11;0.30;99.90
52397;DHT22;38322;53.108;6.308;2024-01-15T19:18:39;0.30;99.90
52397;DHT22;38322;53.108;6.308;2024-01-15T19:21:11;0.30;99.90
52397;DHT22;38322;53.108;6.308;2024-01-15T19:23:38;0.30;99.90
52397;DHT22;38322;53.108;6.308;2024-01-15T19:26:04;0.40;99.90
52397;DHT22;38322;53.108;6.308;2024-01-15T19:28:32;0.40;99.90
52397;DHT22;38322;53.108;6.308;2024-01-15T19:30:58;0.40;99.90
52397;DHT22;38322;53.108;6.308;2024-01-15T19:33:25;0.40;99.90
52397;DHT22;38322;53.108;6.308;2024-01-15T19:35:51;0.40;99.90
52397;DHT22;38322;53.108;6.308;2024-01-15T19:38:17;0.40;99.90
52397;DHT22;38322;53.108;6.308;2024-01-15T19:40:43;0.40;99.90
52397;DHT22;38322;53.108;6.308;2024-01-15T19:43:09;0.40;99.90
52397;DHT22;38322;53.108;6.308;2024-01-15T19:45:36;0.40;99.90
52397;DHT22;38322;53.108;6.308;2024-01-15T19:48:02;0.40;99.90
52397;DHT22;38322;53.108;6.308;2024-01-15T19:50:29;0.40;99.90
52397;DHT22;38322;53.108;6.308;2024-01-15T19:52:55;0.40;99.90
52397;DHT22;38322;53.108;6.308;2024-01-15T19:55:21;0.40;99.90
52397;DHT22;38322;53.108;6.308;2024-01-15T19:57:47;0.40;99.90
52397;DHT22;38322;53.108;6.308;2024-01-15T20:00:14;0.20;99.90
52397;DHT22;38322;53.108;6.308;2024-01-15T20:02:40;0.20;99.90
52397;DHT22;38322;53.108;6.308;2024-01-15T20:05:06;0.10;99.90
52397;DHT22;38322;53.108;6.308;2024-01-15T20:07:36;0.20;99.90
52397;DHT22;38322;53.108;6.308;2024-01-15T20:10:03;0.10;99.90
52397;DHT22;38322;53.108;6.308;2024-01-15T20:12:29;0.10;99.90
52397;DHT22;38322;53.108;6.308;2024-01-15T20:14:55;0.10;99.90
52397;DHT22;38322;53.108;6.308;2024-01-15T20:17:21;0.00;99.90
52397;DHT22;38322;53.108;6.308;2024-01-15T20:19:48;0.00;99.90
52397;DHT22;38322;53.108;6.308;2024-01-15T20:22:13;0.00;99.90
52397;DHT22;38322;53.108;6.308;2024-01-15T20:24:39;0.00;99.90
52397;DHT22;38322;53.108;6.308;2024-01-15T20:27:05;0.00;99.90
52397;DHT22;38322;53.108;6.308;2024-01-15T20:29:31;0.00;99.90
52397;DHT22;38322;53.108;6.308;2024-01-15T20:31:57;0.00;99.90
52397;DHT22;38322;53.108;6.308;2024-01-15T20:34:23;0.00;99.90
52397;DHT22;38322;53.108;6.308;2024-01-15T20:36:49;0.00;99.90
52397;DHT22;38322;53.108;6.308;2024-01-15T20:39:16;0.00;99.90
52397;DHT22;38322;53.108;6.308;2024-01-15T20:41:42;0.00;99.90
52397;DHT22;38322;53.108;6.308;2024-01-15T20:44:08;0.00;99.90
52397;DHT22;38322;53.108;6.308;2024-01-15T20:46:34;-0.10;99.90
52397;DHT22;38322;53.108;6.308;2024-01-15T20:49:00;-0.10;99.90
52397;DHT22;38322;53.108;6.308;2024-01-15T20:51:27;-0.10;99.90
52397;DHT22;38322;53.108;6.308;2024-01-15T20:53:52;-0.10;99.90
52397;DHT22;38322;53.108;6.308;2024-01-15T20:56:19;-0.10;99.90
52397;DHT22;38322;53.108;6.308;2024-01-15T20:58:45;-0.10;99.90
